createdAt,value
2023-03-30T00:01:12.140Z,12.40
2023-03-30T00:03:43.206Z,14.40
2023-03-30T00:06:14.828Z,12.20
2023-03-30T00:08:42.838Z,14.20
2023-03-30T00:11:13.524Z,11.70
2023-03-30T00:13:42.732Z,11.60
2023-03-30T00:16:13.274Z,10.40
2023-03-30T00:18:41.539Z,11.10
2023-03-30T00:21:12.141Z,15.10
2023-03-30T00:23:40.460Z,13.40
2023-03-30T00:26:08.852Z,11.00
2023-03-30T00:28:37.090Z,10.20
2023-03-30T00:31:05.269Z,10.60
2023-03-30T00:33:44.594Z,12.40
2023-03-30T00:36:15.940Z,12.10
2023-03-30T00:38:44.308Z,12.60
2023-03-30T00:41:15.933Z,13.90
2023-03-30T00:44:01.938Z,10.70
2023-03-30T00:46:31.811Z,16.60
2023-03-30T00:49:11.166Z,11.50
2023-03-30T00:51:42.829Z,11.50
2023-03-30T00:54:16.832Z,16.50
2023-03-30T00:56:45.602Z,11.90
2023-03-30T00:59:14.206Z,13.90
2023-03-30T01:01:42.453Z,13.40
2023-03-30T01:04:11.336Z,12.10
2023-03-30T01:06:40.891Z,14.00
2023-03-30T01:09:09.565Z,14.30
2023-03-30T01:14:46.243Z,10.90
2023-03-30T01:17:26.824Z,13.00
2023-03-30T01:19:58.858Z,15.70
2023-03-30T01:22:59.080Z,13.80
2023-03-30T01:26:07.099Z,13.50
2023-03-30T01:28:47.144Z,13.10
2023-03-30T01:31:49.653Z,10.00
2023-03-30T01:34:43.830Z,9.50
2023-03-30T01:37:45.997Z,13.80
2023-03-30T01:40:16.802Z,13.10
2023-03-30T01:42:57.169Z,15.90
2023-03-30T01:45:28.506Z,12.60
2023-03-30T01:48:05.951Z,11.60
2023-03-30T01:51:03.368Z,8.40
2023-03-30T01:53:35.792Z,10.10
2023-03-30T01:56:19.133Z,13.70
2023-03-30T01:58:53.830Z,13.90
2023-03-30T02:01:23.327Z,10.20
2023-03-30T02:03:56.044Z,12.00
2023-03-30T02:06:30.593Z,12.90
2023-03-30T02:09:00.460Z,11.80
2023-03-30T02:11:30.921Z,12.20
2023-03-30T02:14:01.934Z,11.20
2023-03-30T02:16:37.817Z,12.50
2023-03-30T02:19:06.622Z,11.20
2023-03-30T02:21:35.597Z,13.40
2023-03-30T02:24:06.863Z,8.50
2023-03-30T02:26:37.063Z,13.10
2023-03-30T02:29:05.327Z,11.00
2023-03-30T02:31:33.859Z,10.40
2023-03-30T02:34:17.047Z,11.40
2023-03-30T02:37:32.733Z,10.90
2023-03-30T02:40:22.512Z,13.50
2023-03-30T02:43:07.984Z,15.70
2023-03-30T02:45:38.992Z,14.50
2023-03-30T02:48:25.935Z,13.80
2023-03-30T02:51:18.420Z,12.00
2023-03-30T02:54:01.563Z,10.50
2023-03-30T02:57:09.293Z,13.80
2023-03-30T02:59:52.091Z,11.10
2023-03-30T03:02:34.035Z,10.80
2023-03-30T03:05:05.525Z,9.40
2023-03-30T03:07:34.062Z,11.10
2023-03-30T03:10:01.837Z,12.70
2023-03-30T03:12:33.136Z,9.80
2023-03-30T03:15:04.304Z,16.00
2023-03-30T03:17:34.942Z,11.20
2023-03-30T03:20:04.519Z,12.90
2023-03-30T03:22:32.304Z,11.40
2023-03-30T03:25:00.110Z,12.40
2023-03-30T03:27:28.402Z,12.80
2023-03-30T03:29:56.164Z,12.80
2023-03-30T03:32:23.835Z,9.90
2023-03-30T03:34:51.542Z,11.30
2023-03-30T03:37:19.493Z,11.90
2023-03-30T03:39:47.146Z,10.00
2023-03-30T03:42:15.037Z,10.10
2023-03-30T03:44:42.791Z,10.30
2023-03-30T03:47:15.264Z,9.30
2023-03-30T03:49:44.148Z,7.70
2023-03-30T03:52:11.938Z,11.90
2023-03-30T03:54:39.559Z,9.90
2023-03-30T03:57:07.598Z,12.50
2023-03-30T03:59:35.370Z,10.40
2023-03-30T04:02:03.145Z,14.60
2023-03-30T04:04:31.261Z,7.50
2023-03-30T04:06:59.100Z,16.50
2023-03-30T04:09:26.867Z,11.70
2023-03-30T04:11:54.634Z,11.00
2023-03-30T04:14:22.393Z,12.30
2023-03-30T04:16:51.422Z,13.60
2023-03-30T04:19:19.255Z,9.60
2023-03-30T04:21:49.567Z,15.50
2023-03-30T04:24:18.046Z,12.90
2023-03-30T04:26:49.143Z,11.40
2023-03-30T04:29:17.991Z,12.90
2023-03-30T04:31:47.220Z,10.50
2023-03-30T04:34:16.108Z,14.50
2023-03-30T04:36:43.791Z,12.00
2023-03-30T04:39:11.709Z,14.00
2023-03-30T04:41:41.663Z,13.90
2023-03-30T04:44:10.735Z,9.10
2023-03-30T04:46:39.082Z,13.90
2023-03-30T04:49:06.827Z,13.00
2023-03-30T04:51:34.716Z,11.20
2023-03-30T04:54:02.495Z,11.70
2023-03-30T04:56:30.444Z,13.30
2023-03-30T04:58:58.279Z,13.20
2023-03-30T05:01:26.698Z,14.10
2023-03-30T05:03:54.813Z,10.40
2023-03-30T05:06:22.872Z,11.90
2023-03-30T05:08:51.013Z,14.10
2023-03-30T05:11:18.989Z,13.70
2023-03-30T05:13:47.333Z,8.60
2023-03-30T05:16:15.202Z,10.30
2023-03-30T05:18:43.707Z,14.00
2023-03-30T05:21:11.773Z,13.70
2023-03-30T05:23:39.970Z,14.00
2023-03-30T05:26:08.802Z,12.40
2023-03-30T05:28:36.604Z,13.20
2023-03-30T05:31:04.410Z,14.40
2023-03-30T05:33:32.360Z,13.50
2023-03-30T05:36:00.430Z,18.10
2023-03-30T05:38:28.191Z,12.80
2023-03-30T05:40:55.894Z,11.80
2023-03-30T05:43:23.852Z,11.90
2023-03-30T05:45:51.764Z,15.70
2023-03-30T05:48:19.455Z,13.40
2023-03-30T05:50:48.522Z,13.30
2023-03-30T05:53:16.460Z,11.10
2023-03-30T05:55:46.710Z,11.30
2023-03-30T05:58:15.077Z,15.80
2023-03-30T06:00:44.272Z,10.80
2023-03-30T06:03:12.380Z,13.80
2023-03-30T06:05:43.618Z,13.10
2023-03-30T06:08:13.597Z,15.90
2023-03-30T06:10:42.294Z,18.80
2023-03-30T06:13:10.056Z,14.10
2023-03-30T06:15:38.372Z,14.50
2023-03-30T06:18:06.152Z,14.10
2023-03-30T06:20:33.896Z,12.50
2023-03-30T06:23:01.938Z,14.50
2023-03-30T06:25:29.807Z,17.00
2023-03-30T06:27:57.775Z,14.20
2023-03-30T06:30:25.759Z,12.80
2023-03-30T06:32:53.813Z,14.00
2023-03-30T06:35:21.780Z,17.40
2023-03-30T06:37:49.467Z,14.60
2023-03-30T06:40:17.406Z,16.20
2023-03-30T06:42:45.101Z,13.30
2023-03-30T06:45:14.879Z,16.20
2023-03-30T06:47:42.691Z,18.10
2023-03-30T06:50:11.021Z,14.30
2023-03-30T06:52:38.905Z,14.50
2023-03-30T06:55:06.955Z,16.60
2023-03-30T06:57:34.738Z,12.40
2023-03-30T07:00:07.032Z,16.50
2023-03-30T07:02:34.770Z,15.00
2023-03-30T07:05:02.522Z,12.20
2023-03-30T07:07:30.933Z,12.00
2023-03-30T07:09:58.657Z,14.70
2023-03-30T07:12:26.891Z,15.10
2023-03-30T07:14:57.239Z,13.80
2023-03-30T07:17:26.920Z,11.60
2023-03-30T07:19:55.044Z,17.90
2023-03-30T07:22:22.705Z,14.70
2023-03-30T07:24:50.879Z,12.70
2023-03-30T07:27:18.853Z,14.40
2023-03-30T07:29:46.487Z,13.20
2023-03-30T07:32:14.311Z,14.40
2023-03-30T07:34:41.995Z,12.60
2023-03-30T07:37:09.884Z,13.40
2023-03-30T07:39:37.764Z,14.90
2023-03-30T07:42:06.428Z,12.00
2023-03-30T07:44:34.196Z,18.20
2023-03-30T07:47:04.717Z,14.70
2023-03-30T07:49:33.609Z,17.30
2023-03-30T07:52:01.577Z,14.60
2023-03-30T07:54:29.458Z,16.10
2023-03-30T07:56:57.368Z,17.80
2023-03-30T07:59:25.186Z,13.00
2023-03-30T08:01:54.547Z,12.50
2023-03-30T08:04:26.410Z,17.80
2023-03-30T08:06:54.367Z,15.80
2023-03-30T08:09:23.414Z,11.80
2023-03-30T08:11:51.378Z,15.50
2023-03-30T08:14:19.063Z,14.30
2023-03-30T08:16:47.111Z,15.20
2023-03-30T08:19:20.171Z,20.00
2023-03-30T08:21:47.858Z,13.40
2023-03-30T08:24:15.621Z,25.40
2023-03-30T08:26:43.795Z,14.80
2023-03-30T08:29:12.939Z,13.10
2023-03-30T08:31:40.779Z,13.80
2023-03-30T08:34:08.706Z,13.80
2023-03-30T08:36:36.587Z,12.50
2023-03-30T08:39:04.976Z,14.40
2023-03-30T08:41:49.383Z,10.60
2023-03-30T08:44:41.100Z,13.70
2023-03-30T08:47:20.795Z,9.80
2023-03-30T08:50:00.837Z,9.50
2023-03-30T08:52:28.913Z,10.80
2023-03-30T08:54:58.240Z,12.00
2023-03-30T08:57:55.260Z,10.50
2023-03-30T09:00:49.707Z,11.70
2023-03-30T09:03:36.379Z,11.30
2023-03-30T09:06:31.453Z,11.80
2023-03-30T09:08:59.494Z,12.80
2023-03-30T09:11:38.119Z,11.80
2023-03-30T09:14:11.236Z,12.90
2023-03-30T09:16:57.507Z,15.30
2023-03-30T09:19:33.765Z,11.50
2023-03-30T09:22:05.893Z,14.40
2023-03-30T09:24:34.661Z,11.40
2023-03-30T09:27:12.340Z,14.10
2023-03-30T09:29:48.937Z,13.10
2023-03-30T09:32:39.465Z,11.80
2023-03-30T09:35:25.425Z,14.10
2023-03-30T09:37:53.460Z,11.10
2023-03-30T09:40:31.584Z,11.50
2023-03-30T09:43:21.157Z,13.10
2023-03-30T09:45:48.921Z,13.50
2023-03-30T09:48:17.079Z,8.60
2023-03-30T09:50:46.906Z,18.80
2023-03-30T09:53:26.765Z,14.80
2023-03-30T09:55:57.469Z,10.70
2023-03-30T09:58:33.532Z,10.00
2023-03-30T10:01:08.505Z,11.90
2023-03-30T10:03:36.650Z,14.70
2023-03-30T10:06:08.597Z,10.70
2023-03-30T10:08:49.995Z,10.30
2023-03-30T10:11:30.517Z,10.40
2023-03-30T10:13:59.824Z,11.00
2023-03-30T10:16:35.096Z,12.40
2023-03-30T10:19:16.897Z,15.20
2023-03-30T10:21:48.967Z,11.70
2023-03-30T10:24:28.524Z,12.40
2023-03-30T10:26:59.237Z,10.00
2023-03-30T10:29:29.073Z,10.20
2023-03-30T10:32:02.388Z,13.40
2023-03-30T10:34:41.232Z,9.80
2023-03-30T10:37:16.610Z,10.50
2023-03-30T10:39:48.164Z,11.60
2023-03-30T10:42:19.165Z,11.50
2023-03-30T10:44:56.492Z,13.70
2023-03-30T10:47:37.276Z,14.20
2023-03-30T10:50:10.176Z,10.00
2023-03-30T10:52:48.747Z,9.70
2023-03-30T10:55:47.722Z,10.30
2023-03-30T10:58:38.473Z,11.20
2023-03-30T11:01:10.956Z,11.10
2023-03-30T11:03:44.658Z,8.60
2023-03-30T11:06:23.226Z,9.40
2023-03-30T11:08:54.666Z,10.40
2023-03-30T11:11:30.345Z,10.90
2023-03-30T11:14:02.689Z,9.90
2023-03-30T11:16:48.036Z,11.60
2023-03-30T11:19:32.882Z,8.60
2023-03-30T11:22:25.895Z,11.30
2023-03-30T11:24:56.979Z,13.70
2023-03-30T11:27:39.730Z,9.80
2023-03-30T11:30:15.273Z,10.50
2023-03-30T11:33:08.260Z,11.80
2023-03-30T11:35:53.672Z,8.60
2023-03-30T11:38:48.190Z,8.60
2023-03-30T11:41:19.955Z,10.10
2023-03-30T11:43:47.820Z,9.20
2023-03-30T11:46:28.176Z,10.20
2023-03-30T11:49:20.875Z,10.80
2023-03-30T11:52:26.482Z,8.40
2023-03-30T11:55:12.777Z,11.00
2023-03-30T11:57:52.017Z,9.00
2023-03-30T12:01:01.340Z,8.80
2023-03-30T12:03:36.942Z,8.30
2023-03-30T12:06:16.885Z,9.80
2023-03-30T12:09:06.212Z,8.40
2023-03-30T12:14:55.804Z,6.00
2023-03-30T12:17:25.870Z,17.10
2023-03-30T12:20:06.809Z,12.10
2023-03-30T12:22:41.147Z,8.10
2023-03-30T12:25:39.386Z,6.90
2023-03-30T12:28:14.043Z,9.60
2023-03-30T12:30:53.699Z,8.60
2023-03-30T12:33:34.230Z,5.90
2023-03-30T12:36:04.801Z,9.20
2023-03-30T12:38:50.124Z,10.80
2023-03-30T12:41:20.666Z,6.90
2023-03-30T12:44:45.528Z,3.90
2023-03-30T12:47:22.518Z,5.40
2023-03-30T12:50:12.455Z,4.90
2023-03-30T12:55:27.519Z,5.00
2023-03-30T12:58:12.983Z,6.10
2023-03-30T13:00:55.827Z,4.10
2023-03-30T13:03:37.173Z,4.30
2023-03-30T13:06:12.515Z,8.30
2023-03-30T13:08:42.332Z,5.20
2023-03-30T13:11:18.616Z,7.20
2023-03-30T13:13:55.322Z,4.50
2023-03-30T13:16:51.302Z,10.70
2023-03-30T13:21:57.748Z,15.10
2023-03-30T13:24:31.459Z,17.00
2023-03-30T13:27:14.496Z,10.20
2023-03-30T13:29:52.413Z,12.60
2023-03-30T13:32:54.112Z,10.20
2023-03-30T13:35:40.818Z,7.80
2023-03-30T13:38:18.800Z,5.60
2023-03-30T13:41:21.037Z,6.90
2023-03-30T13:46:57.061Z,6.40
2023-03-30T13:49:46.984Z,6.50
2023-03-30T13:52:22.808Z,5.70
2023-03-30T13:54:50.937Z,6.00
2023-03-30T13:57:23.543Z,5.80
2023-03-30T14:00:00.659Z,5.70
2023-03-30T14:02:31.682Z,7.40
2023-03-30T14:08:03.802Z,9.60
2023-03-30T14:10:31.781Z,9.90
2023-03-30T14:13:00.457Z,8.60
2023-03-30T14:15:36.082Z,7.40
2023-03-30T14:18:05.585Z,5.40
2023-03-30T14:21:10.844Z,7.00
2023-03-30T14:23:43.703Z,9.90
2023-03-30T14:26:26.842Z,9.00
2023-03-30T14:28:57.282Z,8.80
2023-03-30T14:31:29.123Z,7.80
2023-03-30T14:33:57.082Z,6.00
2023-03-30T14:36:24.999Z,7.10
2023-03-30T14:38:54.399Z,6.40
2023-03-30T14:41:24.897Z,9.60
2023-03-30T14:43:58.914Z,8.60
2023-03-30T14:46:55.644Z,8.20
2023-03-30T14:49:32.861Z,6.30
2023-03-30T14:52:17.193Z,6.20
2023-03-30T14:54:58.027Z,10.00
2023-03-30T14:57:37.899Z,7.90
2023-03-30T15:00:17.207Z,7.50
2023-03-30T15:02:46.950Z,9.90
2023-03-30T15:05:18.154Z,11.40
2023-03-30T15:07:50.859Z,8.00
2023-03-30T15:10:25.311Z,11.30
2023-03-30T15:12:57.809Z,10.80
2023-03-30T15:15:31.833Z,10.80
2023-03-30T15:18:01.923Z,9.10
2023-03-30T15:20:31.258Z,8.80
2023-03-30T15:23:00.484Z,7.90
2023-03-30T15:25:35.699Z,9.90
2023-03-30T15:28:06.758Z,11.30
2023-03-30T15:30:42.733Z,11.90
2023-03-30T15:33:25.847Z,8.70
2023-03-30T15:35:54.704Z,11.30
2023-03-30T15:38:35.032Z,11.30
2023-03-30T15:41:09.221Z,15.80
2023-03-30T15:44:09.114Z,14.90
2023-03-30T15:46:41.882Z,15.20
2023-03-30T15:49:16.059Z,16.90
2023-03-30T15:51:51.293Z,17.50
2023-03-30T15:54:45.013Z,12.90
2023-03-30T15:57:33.885Z,25.20
2023-03-30T16:00:15.324Z,21.50
2023-03-30T16:02:49.831Z,18.60
2023-03-30T16:05:22.450Z,15.00
2023-03-30T16:07:50.375Z,16.20
2023-03-30T16:10:21.340Z,11.40
2023-03-30T16:12:49.230Z,15.80
2023-03-30T16:15:29.399Z,16.50
2023-03-30T16:17:58.008Z,13.70
2023-03-30T16:20:32.031Z,12.70
2023-03-30T16:22:59.966Z,11.90
2023-03-30T16:25:37.835Z,13.80
2023-03-30T16:28:17.506Z,16.10
2023-03-30T16:30:48.050Z,15.50
2023-03-30T16:33:15.782Z,14.70
2023-03-30T16:35:43.576Z,16.20
2023-03-30T16:38:17.591Z,11.70
2023-03-30T16:40:48.736Z,15.00
2023-03-30T16:45:44.401Z,11.90
2023-03-30T16:48:15.105Z,16.40
2023-03-30T16:50:49.279Z,24.00
2023-03-30T16:53:17.412Z,17.50
2023-03-30T16:55:48.889Z,27.30
2023-03-30T17:00:50.917Z,16.20
2023-03-30T17:03:20.602Z,15.60
2023-03-30T17:05:49.087Z,13.00
2023-03-30T17:08:43.281Z,12.60
2023-03-30T17:11:13.645Z,13.60
2023-03-30T17:13:42.471Z,13.70
2023-03-30T17:16:15.153Z,13.60
2023-03-30T17:18:43.372Z,18.60
2023-03-30T17:21:16.503Z,15.40
2023-03-30T17:23:48.097Z,16.80
2023-03-30T17:26:16.567Z,15.60
2023-03-30T17:28:44.976Z,18.00
2023-03-30T17:31:19.772Z,14.60
2023-03-30T17:33:48.531Z,13.50
2023-03-30T17:36:24.535Z,19.70
2023-03-30T17:38:52.637Z,20.20
2023-03-30T17:41:21.188Z,14.90
2023-03-30T17:43:49.713Z,17.10
2023-03-30T17:46:19.294Z,16.70
2023-03-30T17:48:47.730Z,19.40
2023-03-30T17:51:15.697Z,19.90
2023-03-30T17:53:43.507Z,21.90
2023-03-30T17:56:13.271Z,17.20
2023-03-30T17:58:41.084Z,14.60
2023-03-30T18:01:10.101Z,21.00
2023-03-30T18:03:39.685Z,16.60
2023-03-30T18:06:08.040Z,13.20
2023-03-30T18:08:36.316Z,16.80
2023-03-30T18:11:04.386Z,16.50
2023-03-30T18:13:32.412Z,18.00
2023-03-30T18:16:00.906Z,18.10
2023-03-30T18:18:30.960Z,20.00
2023-03-30T18:21:04.577Z,18.80
2023-03-30T18:23:34.400Z,17.40
2023-03-30T18:26:10.185Z,16.70
2023-03-30T18:28:42.526Z,17.20
2023-03-30T18:31:10.622Z,17.30
2023-03-30T18:33:39.465Z,19.10
2023-03-30T18:36:12.998Z,17.10
2023-03-30T18:38:41.627Z,16.60
2023-03-30T18:41:12.256Z,15.20
2023-03-30T18:43:40.238Z,12.10
2023-03-30T18:46:11.854Z,13.20
2023-03-30T18:48:39.663Z,10.80
2023-03-30T18:51:11.061Z,11.80
2023-03-30T18:53:39.171Z,17.40
2023-03-30T18:56:07.262Z,17.60
2023-03-30T18:58:41.579Z,12.90
2023-03-30T19:01:09.960Z,16.00
2023-03-30T19:03:37.765Z,19.40
2023-03-30T19:06:11.852Z,20.00
2023-03-30T19:08:39.674Z,14.70
2023-03-30T19:11:07.723Z,14.50
2023-03-30T19:13:35.972Z,18.60
2023-03-30T19:16:06.192Z,23.60
2023-03-30T19:18:34.258Z,18.00
2023-03-30T19:21:02.029Z,19.50
2023-03-30T19:23:30.048Z,19.80
2023-03-30T19:25:57.768Z,18.00
2023-03-30T19:28:25.544Z,13.80
2023-03-30T19:30:56.251Z,14.70
2023-03-30T19:33:24.654Z,31.10
2023-03-30T19:35:52.726Z,15.40
2023-03-30T19:38:20.874Z,17.80
2023-03-30T19:40:48.552Z,18.70
2023-03-30T19:43:16.661Z,19.70
2023-03-30T19:45:44.706Z,17.90
2023-03-30T19:48:12.446Z,14.30
2023-03-30T19:50:40.973Z,21.40
2023-03-30T19:53:09.210Z,20.10
2023-03-30T19:55:37.717Z,19.60
2023-03-30T19:58:05.476Z,15.80
2023-03-30T20:00:35.169Z,15.90
2023-03-30T20:03:03.579Z,15.70
2023-03-30T20:05:32.171Z,16.40
2023-03-30T20:08:10.550Z,14.20
2023-03-30T20:10:49.387Z,13.20
2023-03-30T20:13:17.230Z,12.00
2023-03-30T20:15:45.442Z,12.20
2023-03-30T20:18:14.465Z,11.00
2023-03-30T20:20:42.133Z,16.10
2023-03-30T20:23:09.792Z,14.50
2023-03-30T20:25:37.470Z,11.60
2023-03-30T20:28:05.250Z,12.70
2023-03-30T20:30:32.913Z,15.20
2023-03-30T20:33:08.111Z,15.60
2023-03-30T20:35:37.403Z,15.00
2023-03-30T20:38:06.504Z,11.50
2023-03-30T20:40:34.610Z,15.00
2023-03-30T20:43:03.636Z,13.50
2023-03-30T20:45:32.103Z,12.10
2023-03-30T20:48:16.202Z,12.80
2023-03-30T20:50:44.058Z,13.40
2023-03-30T20:53:11.685Z,12.80
2023-03-30T20:55:39.331Z,12.00
2023-03-30T20:58:06.984Z,10.90
2023-03-30T21:00:34.656Z,13.90
2023-03-30T21:03:02.601Z,11.90
2023-03-30T21:05:30.324Z,11.60
2023-03-30T21:08:00.142Z,10.60
2023-03-30T21:10:28.012Z,9.20
2023-03-30T21:12:55.807Z,11.80
2023-03-30T21:15:23.515Z,10.30
2023-03-30T21:17:53.651Z,11.20
2023-03-30T21:20:21.317Z,11.60
2023-03-30T21:22:58.937Z,10.00
2023-03-30T21:25:30.901Z,10.80
2023-03-30T21:27:58.530Z,7.70
2023-03-30T21:30:28.388Z,8.60
2023-03-30T21:32:56.070Z,10.20
2023-03-30T21:35:23.993Z,8.90
2023-03-30T21:37:51.813Z,7.80
2023-03-30T21:40:19.500Z,11.90
2023-03-30T21:42:47.149Z,9.40
2023-03-30T21:45:17.325Z,6.80
2023-03-30T21:47:45.046Z,7.40
2023-03-30T21:50:12.748Z,12.60
2023-03-30T21:52:40.447Z,10.00
2023-03-30T21:55:08.482Z,8.80
2023-03-30T21:57:36.121Z,10.50
2023-03-30T22:00:07.380Z,10.80
2023-03-30T22:05:02.830Z,9.20
2023-03-30T22:07:30.537Z,10.00
2023-03-30T22:09:59.833Z,9.30
2023-03-30T22:12:27.561Z,9.80
2023-03-30T22:14:55.457Z,11.10
2023-03-30T22:17:37.763Z,13.10
2023-03-30T22:20:07.030Z,9.50
2023-03-30T22:22:34.660Z,9.50
2023-03-30T22:25:02.337Z,11.60
2023-03-30T22:27:30.549Z,10.90
2023-03-30T22:29:59.458Z,11.00
2023-03-30T22:32:27.427Z,9.20
2023-03-30T22:34:55.354Z,9.30
2023-03-30T22:37:24.285Z,12.10
2023-03-30T22:39:52.226Z,12.00
2023-03-30T22:42:19.888Z,11.10
2023-03-30T22:44:47.784Z,11.00
2023-03-30T22:47:15.547Z,10.10
2023-03-30T22:49:43.222Z,11.10
2023-03-30T22:52:11.138Z,10.80
2023-03-30T22:54:38.843Z,12.20
2023-03-30T22:57:06.617Z,13.80
2023-03-30T22:59:34.414Z,10.60
2023-03-30T23:02:02.141Z,11.40
2023-03-30T23:04:30.924Z,11.80
2023-03-30T23:07:00.534Z,10.30
2023-03-30T23:09:28.903Z,13.70
2023-03-30T23:11:56.580Z,13.70
2023-03-30T23:14:26.885Z,10.90
2023-03-30T23:16:57.613Z,10.00
2023-03-30T23:19:26.098Z,12.50
2023-03-30T23:21:54.579Z,14.10
2023-03-30T23:24:22.268Z,12.70
2023-03-30T23:26:49.963Z,13.50
2023-03-30T23:29:17.823Z,16.50
2023-03-30T23:31:45.826Z,12.40
2023-03-30T23:34:13.524Z,14.30
2023-03-30T23:36:41.201Z,14.00
2023-03-30T23:39:10.341Z,14.60
2023-03-30T23:41:38.041Z,11.10
2023-03-30T23:44:06.185Z,11.00
2023-03-30T23:46:34.481Z,13.60
2023-03-30T23:49:03.663Z,17.10
2023-03-30T23:51:31.541Z,12.90
2023-03-30T23:54:06.055Z,14.50
2023-03-30T23:56:38.401Z,14.80
2023-03-30T23:59:06.116Z,11.10
